Time;durP1;ratioP1;P1;durP2;ratioP2;P2;SDS_P1;SDS_P2;PMS_P1;PMS_P2;Temp;Humidity;BMP_temperature;BMP_pressure;BME280_temperature;BME280_humidity;BME280_pressure;Samples;Min_cycle;Max_cycle;Signal;HPM_P1;HPM_P2
2022/01/31 00:00:38;;;;;;;1.67;1.57;;;;;;;-0.22;86.77;91976.88;4955655;28;20231;-76
2022/01/31 00:03:05;;;;;;;1.63;1.53;;;;;;;-0.26;87.06;91973.63;4955610;28;20630;-76
2022/01/31 00:05:33;;;;;;;0.97;0.97;;;;;;;-0.26;85.07;91976.09;4954803;28;20604;-76
2022/01/31 00:08:01;;;;;;;0.90;0.90;;;;;;;-0.15;83.92;91983.41;4955536;28;20540;-76
2022/01/31 00:10:31;;;;;;;2.33;2.20;;;;;;;-0.15;83.27;91976.78;4956015;28;20539;-76
2022/01/31 00:13:03;;;;;;;0.57;0.57;;;;;;;-0.01;82.23;91984.88;4954899;28;20222;-75
2022/01/31 00:15:36;;;;;;;0.97;0.97;;;;;;;0.03;81.00;91987.31;4956411;28;20547;-75
2022/01/31 00:18:03;;;;;;;1.57;1.57;;;;;;;-0.02;80.12;91993.16;4954513;28;20223;-76
2022/01/31 00:20:31;;;;;;;2.57;1.60;;;;;;;0.08;79.60;91998.00;4955666;28;20583;-76
2022/01/31 00:22:58;;;;;;;1.33;1.33;;;;;;;0.06;79.58;91998.00;4955497;28;20194;-76
2022/01/31 00:25:27;;;;;;;1.00;1.00;;;;;;;0.09;79.88;91987.22;4955931;28;20195;-75
2022/01/31 00:27:54;;;;;;;2.57;2.47;;;;;;;0.15;80.55;91990.44;4954899;28;20208;-75
2022/01/31 00:30:21;;;;;;;1.40;1.40;;;;;;;0.14;80.06;91985.50;4955434;28;20480;-75
2022/01/31 00:32:49;;;;;;;1.50;1.50;;;;;;;0.06;80.79;91985.59;4955625;28;20585;-75
2022/01/31 00:35:16;;;;;;;1.20;1.20;;;;;;;0.00;81.02;91993.16;4955392;28;20218;-75
2022/01/31 00:37:43;;;;;;;1.13;1.13;;;;;;;-0.12;80.38;91990.81;4954792;28;20212;-75
2022/01/31 00:40:12;;;;;;;1.17;1.17;;;;;;;-0.10;79.73;91997.41;4954743;28;20579;-75
2022/01/31 00:42:41;;;;;;;0.70;0.70;;;;;;;-0.11;79.01;91998.22;4955013;28;20556;-75
2022/01/31 00:45:16;;;;;;;2.13;2.10;;;;;;;-0.12;79.62;92004.06;4955028;28;20228;-76
2022/01/31 00:47:47;;;;;;;1.10;1.00;;;;;;;-0.10;79.79;92006.50;4955087;28;20525;-75
2022/01/31 00:50:17;;;;;;;0.60;0.60;;;;;;;-0.21;77.65;92019.03;4955079;28;20474;-75
2022/01/31 00:52:46;;;;;;;1.10;1.10;;;;;;;-0.23;78.90;92019.91;4955462;28;20553;-75
2022/01/31 00:55:14;;;;;;;0.80;0.80;;;;;;;-0.26;80.02;91995.94;4955105;28;20474;-75
2022/01/31 00:57:44;;;;;;;1.13;1.13;;;;;;;-0.16;79.20;91996.66;4955176;28;20604;-75
2022/01/31 01:00:13;;;;;;;0.70;0.70;;;;;;;-0.16;78.01;92012.38;4954367;28;20451;-75
2022/01/31 01:02:41;;;;;;;0.57;0.57;;;;;;;-0.32;77.71;92007.59;4955942;28;20220;-75
2022/01/31 01:05:09;;;;;;;0.70;0.70;;;;;;;-0.34;78.13;92001.88;4953972;28;20550;-75
2022/01/31 01:07:36;;;;;;;0.90;0.90;;;;;;;-0.48;78.58;91995.41;4954186;28;20238;-75
2022/01/31 01:10:05;;;;;;;1.43;1.43;;;;;;;-0.50;78.42;91989.63;4954866;28;20560;-75
2022/01/31 01:12:32;;;;;;;1.47;1.47;;;;;;;-0.46;78.02;92002.84;4954520;28;20219;-75
2022/01/31 01:15:01;;;;;;;0.87;0.87;;;;;;;-0.50;77.74;91999.53;4953686;28;20493;-75
2022/01/31 01:17:28;;;;;;;0.60;0.60;;;;;;;-0.57;78.09;91987.25;4953996;28;20583;-75
2022/01/31 01:19:56;;;;;;;1.07;1.07;;;;;;;-0.59;78.31;91992.22;4953936;28;20646;-75
2022/01/31 01:22:24;;;;;;;0.73;0.73;;;;;;;-0.56;78.40;91996.31;4954617;28;20536;-75
2022/01/31 01:24:51;;;;;;;1.17;1.17;;;;;;;-0.55;78.11;91997.97;4954371;28;20540;-75
2022/01/31 01:27:20;;;;;;;0.60;0.60;;;;;;;-0.59;78.20;92003.81;4954271;28;20193;-75
2022/01/31 01:29:48;;;;;;;10.40;1.67;;;;;;;-0.58;77.60;92003.78;4954347;28;20600;-75
2022/01/31 01:32:17;;;;;;;1.30;1.30;;;;;;;-0.71;77.11;91986.56;4953662;28;20595;-75
2022/01/31 01:34:44;;;;;;;0.40;0.40;;;;;;;-0.63;77.07;91985.66;4954365;28;20639;-75
2022/01/31 01:37:12;;;;;;;0.73;0.73;;;;;;;-0.52;77.36;91993.81;4953958;28;20679;-75
2022/01/31 01:39:39;;;;;;;1.00;1.00;;;;;;;-0.48;76.60;92004.50;4954535;28;20483;-75
2022/01/31 01:42:07;;;;;;;1.87;1.63;;;;;;;-0.53;76.72;91993.81;4954421;28;20267;-75
2022/01/31 01:44:46;;;;;;;2.50;2.30;;;;;;;-0.56;77.54;91992.16;4953942;28;20566;-75
2022/01/31 01:47:18;;;;;;;1.17;1.17;;;;;;;-0.59;77.42;91983.97;4954031;28;20544;-75
2022/01/31 01:49:45;;;;;;;1.53;1.43;;;;;;;-0.71;77.90;91984.91;4954078;28;20575;-75
2022/01/31 01:52:13;;;;;;;0.90;0.90;;;;;;;-0.81;78.57;91975.94;4952548;28;20212;-75
2022/01/31 01:54:41;;;;;;;0.83;0.83;;;;;;;-0.97;79.60;91962.91;4954298;28;20611;-74
2022/01/31 01:57:08;;;;;;;1.00;1.00;;;;;;;-0.91;79.04;91966.97;4953891;28;20470;-75
2022/01/31 01:59:37;;;;;;;1.37;1.37;;;;;;;-1.02;78.98;91959.66;4954005;28;20568;-75
2022/01/31 02:02:06;;;;;;;0.70;0.70;;;;;;;-1.04;79.30;91967.94;4953618;28;20196;-75
2022/01/31 02:04:35;;;;;;;1.17;1.17;;;;;;;-1.12;79.60;91963.03;4954261;28;20521;-75
2022/01/31 02:07:02;;;;;;;0.80;0.80;;;;;;;-1.05;79.40;91971.25;4953982;28;20468;-75
2022/01/31 02:09:31;;;;;;;0.90;0.90;;;;;;;-0.97;79.06;91974.47;4953825;28;20560;-75
2022/01/31 02:11:59;;;;;;;1.33;1.33;;;;;;;-1.08;78.66;91972.09;4953753;28;20553;-75
2022/01/31 02:14:27;;;;;;;1.20;1.20;;;;;;;-0.95;78.91;91976.09;4953495;28;20563;-75
2022/01/31 02:16:54;;;;;;;0.90;0.90;;;;;;;-1.07;78.26;91958.84;4954191;28;20523;-75
2022/01/31 02:19:23;;;;;;;0.87;0.80;;;;;;;-0.85;77.72;91981.78;4955028;28;20611;-75
2022/01/31 02:21:53;;;;;;;1.37;1.37;;;;;;;-0.79;77.26;91984.19;4953245;28;20541;-75
2022/01/31 02:24:21;;;;;;;0.90;0.90;;;;;;;-0.80;77.16;91991.66;4953320;28;20316;-75
2022/01/31 02:26:48;;;;;;;0.90;0.90;;;;;;;-0.89;77.43;91995.03;4953982;28;20595;-75
2022/01/31 02:29:15;;;;;;;0.87;0.87;;;;;;;-0.89;77.44;91988.41;4954272;28;20197;-75
2022/01/31 02:31:47;;;;;;;0.70;0.70;;;;;;;-0.96;77.33;91988.50;4952926;28;20468;-75
2022/01/31 02:34:14;;;;;;;0.60;0.60;;;;;;;-1.12;77.19;91982.88;4953378;28;20596;-75
2022/01/31 02:36:41;;;;;;;1.07;1.07;;;;;;;-1.23;77.86;91981.31;4953738;28;20491;-75
2022/01/31 02:39:10;;;;;;;0.83;0.83;;;;;;;-1.23;77.63;91992.06;4953903;28;20583;-76
2022/01/31 02:41:42;;;;;;;1.50;1.50;;;;;;;-1.24;77.98;91979.72;4953659;28;20205;-75
2022/01/31 02:44:14;;;;;;;1.20;1.20;;;;;;;-1.28;78.32;91978.88;4953535;28;20360;-75
2022/01/31 02:46:49;;;;;;;0.87;0.87;;;;;;;-1.33;78.35;91968.22;4953155;28;20501;-75
2022/01/31 02:49:21;;;;;;;1.00;1.00;;;;;;;-1.41;78.49;91958.34;4953377;28;20558;-75
2022/01/31 02:51:53;;;;;;;2.63;2.37;;;;;;;-1.37;78.69;91974.84;4952975;28;20539;-76
2022/01/31 02:54:22;;;;;;;2.23;2.13;;;;;;;-1.40;78.05;91971.56;4953851;28;20576;-76
2022/01/31 02:56:49;;;;;;;10.60;3.43;;;;;;;-1.35;77.55;91977.28;4954722;28;21254;-75
2022/01/31 02:59:17;;;;;;;1.67;1.67;;;;;;;-1.35;77.19;91969.88;4952845;28;20226;-76
2022/01/31 03:01:44;;;;;;;1.00;1.00;;;;;;;-1.39;77.35;91978.16;4952586;28;20561;-76
2022/01/31 03:04:12;;;;;;;1.17;1.17;;;;;;;-1.28;77.61;91968.97;4954643;28;20662;-76
2022/01/31 03:06:42;;;;;;;1.63;1.60;;;;;;;-1.15;76.73;91974.66;4956455;28;20666;-76
2022/01/31 03:09:10;;;;;;;0.80;0.80;;;;;;;-1.15;77.11;91959.78;4955811;28;20736;-76
2022/01/31 03:11:38;;;;;;;16.90;1.23;;;;;;;-1.35;76.50;91967.38;4956532;28;20546;-75
2022/01/31 03:14:06;;;;;;;0.50;0.50;;;;;;;-1.55;77.61;91966.75;4956198;28;20479;-76
2022/01/31 03:16:35;;;;;;;1.23;1.13;;;;;;;-1.64;77.64;91969.31;4955869;28;20608;-76
2022/01/31 03:19:02;;;;;;;0.50;0.50;;;;;;;-1.66;78.05;91974.28;4956512;28;20498;-75
2022/01/31 03:21:29;;;;;;;1.30;1.30;;;;;;;-1.72;78.35;91992.47;4957192;28;20531;-76
2022/01/31 03:23:56;;;;;;;2.67;1.70;;;;;;;-1.72;78.25;91992.47;4956735;28;20610;-76
2022/01/31 03:26:23;;;;;;;0.90;0.90;;;;;;;-1.84;77.78;91977.72;4956056;28;20573;-75
2022/01/31 03:28:53;;;;;;;0.70;0.70;;;;;;;-1.79;77.47;91975.19;4956204;28;20580;-76
2022/01/31 03:31:21;;;;;;;0.60;0.60;;;;;;;-1.78;77.74;91977.66;4956118;28;20520;-76
2022/01/31 03:33:50;;;;;;;0.80;0.80;;;;;;;-1.75;77.32;92009.81;4955952;28;20192;-76
2022/01/31 03:36:17;;;;;;;1.47;1.47;;;;;;;-1.80;78.13;91988.41;4955492;28;20467;-75
2022/01/31 03:38:45;;;;;;;0.80;0.80;;;;;;;-1.89;79.29;91966.19;4955908;28;20560;-76
2022/01/31 03:41:13;;;;;;;1.77;1.77;;;;;;;-1.81;79.11;91967.81;4955614;28;20581;-76
2022/01/31 03:43:41;;;;;;;1.43;1.43;;;;;;;-1.77;78.45;91981.78;4956328;28;20594;-76
2022/01/31 03:46:10;;;;;;;1.17;0.93;;;;;;;-1.77;79.06;91974.34;4955578;28;20623;-76
2022/01/31 03:48:38;;;;;;;2.50;2.47;;;;;;;-1.86;79.11;91958.75;4955810;28;20579;-76
2022/01/31 03:51:06;;;;;;;1.67;1.63;;;;;;;-1.73;78.75;91990.00;4955455;28;20610;-76
2022/01/31 03:53:33;;;;;;;3.90;2.73;;;;;;;-1.94;79.24;91965.41;4957038;28;20573;-76
2022/01/31 03:56:00;;;;;;;1.23;1.23;;;;;;;-2.09;78.97;91958.94;4955630;28;20538;-76
2022/01/31 03:58:28;;;;;;;0.70;0.70;;;;;;;-2.07;78.23;91957.25;4955317;28;20591;-76
2022/01/31 04:00:56;;;;;;;1.20;1.20;;;;;;;-1.98;77.91;91961.31;4955606;28;20559;-76
2022/01/31 04:03:24;;;;;;;0.60;0.60;;;;;;;-2.01;78.37;91968.75;4955747;28;20189;-76
2022/01/31 04:05:52;;;;;;;0.90;0.90;;;;;;;-2.01;78.04;91972.06;4954562;28;20251;-77
2022/01/31 04:08:19;;;;;;;1.00;1.00;;;;;;;-2.05;79.27;91972.91;4955462;28;20576;-76
2022/01/31 04:10:46;;;;;;;1.27;1.27;;;;;;;-2.17;79.40;91971.34;4954909;28;20538;-76
2022/01/31 04:13:16;;;;;;;1.10;1.10;;;;;;;-2.23;78.16;91980.44;4956090;28;20617;-76
2022/01/31 04:15:43;;;;;;;1.60;1.60;;;;;;;-2.21;77.86;91976.31;4954552;28;20576;-76
2022/01/31 04:18:11;;;;;;;1.30;1.30;;;;;;;-2.16;76.50;91996.91;4956074;28;20559;-76
2022/01/31 04:20:40;;;;;;;1.43;1.43;;;;;;;-2.17;76.85;91997.72;4955675;28;20492;-76
2022/01/31 04:23:10;;;;;;;1.90;1.20;;;;;;;-2.09;77.24;91991.09;4955332;28;20465;-76
2022/01/31 04:25:46;;;;;;;1.30;1.30;;;;;;;-2.02;76.69;92002.56;4955811;28;20580;-76
2022/01/31 04:28:21;;;;;;;1.63;1.63;;;;;;;-2.07;76.40;91994.34;4955417;28;20607;-76
2022/01/31 04:30:56;;;;;;;1.87;1.87;;;;;;;-1.93;76.19;92001.69;4955192;28;20583;-76
2022/01/31 04:33:25;;;;;;;2.57;2.57;;;;;;;-1.92;76.13;92010.78;4955089;28;20638;-76
2022/01/31 04:35:54;;;;;;;2.07;1.97;;;;;;;-1.85;75.46;92008.22;4954729;28;20204;-76
2022/01/31 05:02:49;;;;;;;2.37;2.17;;;;;;;-1.99;76.59;92043.81;4954700;28;20590;-77
2022/01/31 05:05:18;;;;;;;2.60;2.50;;;;;;;-2.20;78.39;92015.06;4953348;28;20628;-77
2022/01/31 05:07:45;;;;;;;1.40;1.30;;;;;;;-2.20;78.12;92013.38;4954349;28;20587;-76
2022/01/31 05:10:13;;;;;;;1.87;1.77;;;;;;;-2.19;76.89;92034.81;4955048;28;20471;-76
2022/01/31 05:12:41;;;;;;;55.80;31.07;;;;;;;-2.13;77.22;92046.34;4954210;28;20232;-76
2022/01/31 05:15:09;;;;;;;12.43;8.17;;;;;;;-2.19;77.49;92048.84;4935176;28;20553;-76
2022/01/31 05:17:37;;;;;;;1.93;1.93;;;;;;;-2.32;77.56;92038.22;4944511;28;20208;-76
2022/01/31 05:20:06;;;;;;;3.13;2.30;;;;;;;-2.25;77.78;92034.03;4954277;28;20204;-76
2022/01/31 05:22:34;;;;;;;3.20;2.90;;;;;;;-2.11;77.75;92045.50;4953659;28;20675;-77
2022/01/31 05:25:02;;;;;;;5.07;4.80;;;;;;;-2.12;76.91;92058.72;4954374;28;20246;-77
2022/01/31 05:27:29;;;;;;;4.27;4.17;;;;;;;-2.32;77.57;92044.81;4954194;28;20564;-76
2022/01/31 05:29:56;;;;;;;4.00;3.27;;;;;;;-2.31;78.11;92039.81;4953961;28;20192;-77
2022/01/31 05:32:23;;;;;;;4.90;3.27;;;;;;;-2.22;78.15;92038.97;4954418;28;20223;-77
2022/01/31 05:34:51;;;;;;;4.43;4.00;;;;;;;-2.16;78.31;92038.94;4953699;28;20664;-76
2022/01/31 05:37:18;;;;;;;3.17;3.07;;;;;;;-2.32;78.03;92043.16;4945530;28;20521;-75
2022/01/31 05:39:47;;;;;;;3.30;2.93;;;;;;;-2.59;78.36;92016.06;4938742;28;20201;-76
2022/01/31 05:42:15;;;;;;;3.17;3.07;;;;;;;-2.30;77.96;92048.06;4946604;28;20589;-77
2022/01/31 05:44:46;;;;;;;2.00;2.00;;;;;;;-2.20;77.18;92059.59;4943816;28;20596;-77
2022/01/31 05:47:14;;;;;;;6.00;5.70;;;;;;;-2.34;78.17;92052.22;4946386;28;20544;-75
2022/01/31 05:49:41;;;;;;;7.97;6.83;;;;;;;-2.37;79.12;92054.72;4946067;28;20231;-76
2022/01/31 05:52:09;;;;;;;16.73;6.03;;;;;;;-2.38;79.53;92052.25;4950578;28;20490;-75
2022/01/31 05:54:39;;;;;;;5.60;5.40;;;;;;;-2.39;79.73;92050.59;4948564;28;20201;-76
2022/01/31 05:57:08;;;;;;;7.17;6.50;;;;;;;-2.33;78.91;92070.34;4942282;28;20487;-76
2022/01/31 05:59:36;;;;;;;5.43;5.03;;;;;;;-2.61;79.40;92069.63;4946802;28;20238;-77
2022/01/31 06:02:04;;;;;;;5.90;5.57;;;;;;;-2.69;80.76;92073.75;4947902;28;20572;-75
2022/01/31 06:04:31;;;;;;;4.50;4.20;;;;;;;-2.70;81.72;92069.63;4944766;28;20634;-75
2022/01/31 06:06:59;;;;;;;3.23;3.13;;;;;;;-2.75;81.34;92077.06;4947423;28;20642;-75
2022/01/31 06:09:28;;;;;;;3.80;3.67;;;;;;;-2.80;81.09;92068.84;4949856;28;20490;-74
2022/01/31 06:11:55;;;;;;;2.73;2.67;;;;;;;-2.93;80.68;92050.75;4942893;28;20518;-74
2022/01/31 06:14:28;;;;;;;3.77;3.57;;;;;;;-2.82;80.65;92055.69;4946208;28;20569;-76
2022/01/31 06:16:55;;;;;;;3.80;3.53;;;;;;;-2.73;79.47;92064.72;4949028;28;20486;-76
2022/01/31 06:19:23;;;;;;;4.50;4.20;;;;;;;-2.54;79.14;92086.91;4942552;28;20585;-76
2022/01/31 06:21:50;;;;;;;5.57;4.73;;;;;;;-2.39;79.71;92085.22;4945689;28;20595;-76
2022/01/31 06:24:17;;;;;;;6.33;5.77;;;;;;;-2.48;80.47;92075.38;4947314;28;20227;-76
2022/01/31 06:26:45;;;;;;;5.27;5.07;;;;;;;-2.55;80.36;92077.03;4945198;28;20607;-74
2022/01/31 06:29:12;;;;;;;4.67;4.47;;;;;;;-2.46;79.93;92091.00;4944612;28;20582;-75
2022/01/31 06:31:41;;;;;;;3.73;3.60;;;;;;;-2.53;79.25;92076.19;4941032;28;20208;-74
2022/01/31 06:34:08;;;;;;;5.10;4.80;;;;;;;-2.47;78.51;92107.47;4942750;28;20580;-74
2022/01/31 06:36:36;;;;;;;7.10;6.43;;;;;;;-2.53;78.93;92088.53;4948621;28;20480;-74
2022/01/31 06:39:04;;;;;;;4.43;3.50;;;;;;;-2.42;78.88;92092.66;4942459;28;20204;-75
2022/01/31 06:41:31;;;;;;;5.13;4.20;;;;;;;-2.34;78.15;92099.22;4949363;28;20238;-75
2022/01/31 06:43:58;;;;;;;5.67;4.03;;;;;;;-2.31;78.25;92090.97;4952081;28;20215;-75
2022/01/31 06:46:26;;;;;;;1.97;1.97;;;;;;;-2.24;77.97;92078.56;4948098;28;20627;-75
2022/01/31 06:48:54;;;;;;;2.50;2.40;;;;;;;-2.07;77.34;92093.31;4941183;28;20561;-76
2022/01/31 06:51:22;;;;;;;1.50;1.50;;;;;;;-2.02;76.84;92078.44;4944325;28;20685;-74
2022/01/31 06:53:55;;;;;;;3.20;3.10;;;;;;;-2.05;76.29;92076.81;4951773;28;20483;-77
2022/01/31 06:56:29;;;;;;;2.53;2.43;;;;;;;-2.23;76.67;92038.16;4948816;28;20204;-75
2022/01/31 06:58:56;;;;;;;3.77;3.57;;;;;;;-1.87;76.13;92071.78;4940986;28;20552;-73
2022/01/31 07:01:25;;;;;;;2.43;2.27;;;;;;;-1.73;75.50;92067.56;4950711;28;20204;-75
2022/01/31 07:04:01;;;;;;;8.33;6.70;;;;;;;-1.51;75.15;92087.22;4948487;28;20201;-75
2022/01/31 07:06:29;;;;;;;15.77;10.47;;;;;;;-1.45;75.52;92069.84;4942417;28;20787;-75
2022/01/31 07:08:58;;;;;;;14.50;12.93;;;;;;;-1.51;75.41;92060.81;4950953;28;20560;-74
2022/01/31 07:11:27;;;;;;;38.50;18.77;;;;;;;-1.34;74.55;92090.41;4944290;28;20209;-75
2022/01/31 07:14:03;;;;;;;11.07;10.23;;;;;;;-1.70;74.78;92039.50;4952745;28;20207;-75
2022/01/31 07:16:31;;;;;;;10.57;9.80;;;;;;;-1.43;74.71;92085.53;4949393;28;20697;-76
2022/01/31 07:19:05;;;;;;;11.03;10.03;;;;;;;-1.41;75.73;92079.72;4950602;28;20862;-76
2022/01/31 07:21:37;;;;;;;11.10;9.63;;;;;;;-1.36;75.54;92070.63;4945222;28;20288;-75
2022/01/31 07:24:18;;;;;;;10.53;9.40;;;;;;;-1.46;75.50;92040.97;4943948;28;20266;-75
2022/01/31 07:26:46;;;;;;;6.30;6.00;;;;;;;-1.63;74.67;92030.38;4947398;28;20658;-76
2022/01/31 07:29:14;;;;;;;7.17;6.57;;;;;;;-1.24;74.48;92066.41;4951738;28;20499;-75
2022/01/31 07:31:42;;;;;;;10.47;8.97;;;;;;;-1.22;74.08;92045.72;4945371;28;20496;-75
2022/01/31 07:34:11;;;;;;;22.90;13.00;;;;;;;-1.05;73.48;92060.44;4939781;28;20497;-76
2022/01/31 07:36:38;;;;;;;28.23;19.70;;;;;;;-0.90;73.84;92065.25;4951801;28;20511;-76
2022/01/31 07:39:06;;;;;;;15.17;12.03;;;;;;;-0.82;73.80;92060.25;4943927;28;20594;-75
2022/01/31 07:41:34;;;;;;;23.57;17.07;;;;;;;-0.72;73.11;92054.34;4947028;28;20484;-75
2022/01/31 07:44:01;;;;;;;25.57;16.87;;;;;;;-0.74;72.28;92041.16;4947260;28;20230;-75
2022/01/31 07:46:28;;;;;;;18.47;13.30;;;;;;;-0.51;72.78;92061.59;4949530;28;20496;-77
2022/01/31 07:48:56;;;;;;;21.17;14.10;;;;;;;-0.43;71.83;92067.28;4945346;28;20485;-76
2022/01/31 07:51:25;;;;;;;10.87;10.07;;;;;;;-0.54;71.50;92044.25;4949431;28;20619;-77
2022/01/31 07:53:52;;;;;;;10.53;8.30;;;;;;;-0.45;72.09;92059.03;4949613;28;20196;-77
2022/01/31 07:56:20;;;;;;;15.07;11.47;;;;;;;-0.44;71.79;92055.72;4949038;28;20553;-77
2022/01/31 07:58:48;;;;;;;10.13;9.07;;;;;;;-0.36;72.33;92053.16;4944653;28;20222;-77
2022/01/31 08:01:16;;;;;;;8.50;7.83;;;;;;;-0.32;72.04;92055.56;4946032;28;20208;-77
2022/01/31 08:03:45;;;;;;;21.83;13.73;;;;;;;-0.26;71.92;92044.75;4951249;28;20212;-77
2022/01/31 08:06:12;;;;;;;28.73;20.57;;;;;;;-0.23;71.88;92022.41;4950179;28;20661;-77
2022/01/31 08:08:42;;;;;;;17.03;15.03;;;;;;;-0.06;71.06;92035.44;4950417;28;20273;-77
2022/01/31 08:11:10;;;;;;;7.83;7.10;;;;;;;0.02;70.11;92038.63;4950110;28;20556;-77
2022/01/31 08:13:38;;;;;;;14.27;12.27;;;;;;;0.15;70.14;92037.63;4951928;28;20572;-77
2022/01/31 08:16:13;;;;;;;13.70;12.47;;;;;;;0.27;70.16;92041.59;4951977;28;20562;-77
2022/01/31 08:18:42;;;;;;;6.90;6.40;;;;;;;0.36;69.10;92043.94;4950340;28;20571;-77
2022/01/31 08:21:11;;;;;;;11.77;7.73;;;;;;;0.39;68.82;92039.75;4946247;28;20560;-77
2022/01/31 08:23:39;;;;;;;5.77;5.23;;;;;;;0.49;68.45;92042.94;4950390;28;20600;-76
2022/01/31 08:26:12;;;;;;;11.03;7.93;;;;;;;0.50;68.15;92031.34;4943585;28;20577;-77
2022/01/31 08:28:42;;;;;;;8.83;8.07;;;;;;;0.62;68.53;92031.94;4941160;28;20249;-77
2022/01/31 08:31:16;;;;;;;11.30;8.87;;;;;;;0.79;69.40;92026.72;4946325;28;20229;-78
2022/01/31 08:33:48;;;;;;;14.40;8.80;;;;;;;0.85;67.13;92056.47;4949017;28;20979;-77
2022/01/31 08:36:17;;;;;;;13.63;7.40;;;;;;;0.91;67.26;92043.09;4952921;28;20488;-77
2022/01/31 08:38:46;;;;;;;6.03;5.73;;;;;;;1.00;66.87;92052.91;4952204;28;20613;-77
2022/01/31 08:41:16;;;;;;;6.13;5.67;;;;;;;0.98;66.15;92057.91;4944900;28;20475;-77
2022/01/31 08:43:43;;;;;;;9.10;6.93;;;;;;;1.11;65.15;92069.31;4947295;28;20253;-76
2022/01/31 08:46:13;;;;;;;4.87;4.13;;;;;;;1.21;63.22;92084.91;4950221;28;20245;-76
2022/01/31 08:48:41;;;;;;;8.03;6.47;;;;;;;1.29;62.60;92078.13;4943457;28;20216;-76
2022/01/31 08:51:10;;;;;;;6.97;6.47;;;;;;;1.42;61.83;92084.53;4946040;28;20594;-76
2022/01/31 08:53:39;;;;;;;5.63;5.40;;;;;;;1.43;62.30;92062.94;4947529;28;20571;-77
2022/01/31 08:56:09;;;;;;;32.47;13.10;;;;;;;1.60;61.76;92069.28;4949360;28;20223;-75
2022/01/31 08:58:44;;;;;;;21.57;12.60;;;;;;;1.70;60.20;92072.41;4945675;28;20339;-80
2022/01/31 09:01:12;;;;;;;7.50;6.73;;;;;;;1.79;60.54;92063.97;4946785;28;20635;-77
2022/01/31 09:04:01;;;;;;;4.83;4.37;;;;;;;1.84;60.72;92063.03;4948807;28;20564;-79
2022/01/31 09:06:35;;;;;;;7.83;5.73;;;;;;;1.97;60.99;92051.94;4940663;28;20291;-75
2022/01/31 09:09:08;;;;;;;8.57;7.77;;;;;;;2.11;61.44;92039.22;4945296;28;20469;-76
2022/01/31 09:11:36;;;;;;;6.73;6.10;;;;;;;2.16;60.45;92039.13;4948527;28;20643;-75
2022/01/31 09:14:05;;;;;;;10.60;8.63;;;;;;;2.32;58.80;92048.75;4943398;28;20543;-75
2022/01/31 09:16:32;;;;;;;13.17;8.50;;;;;;;2.44;56.97;92062.63;4940639;28;20514;-76
2022/01/31 09:19:00;;;;;;;25.73;10.73;;;;;;;2.53;57.73;92046.66;4941415;28;20539;-74
2022/01/31 09:21:27;;;;;;;14.17;9.03;;;;;;;2.63;57.33;92035.63;4940981;28;20604;-75
2022/01/31 09:23:54;;;;;;;23.80;10.30;;;;;;;2.75;56.90;92025.38;4941992;28;20575;-75
2022/01/31 09:26:23;;;;;;;18.60;10.30;;;;;;;2.87;57.13;92018.41;4943771;28;20747;-75
2022/01/31 09:28:52;;;;;;;20.87;8.90;;;;;;;2.83;54.16;92021.84;4944098;28;20586;-75
2022/01/31 09:31:21;;;;;;;6.73;5.77;;;;;;;2.96;53.36;92039.00;4935724;28;20519;-73
2022/01/31 09:33:49;;;;;;;5.70;4.53;;;;;;;3.15;53.26;92041.03;4939647;28;20228;-74
2022/01/31 09:36:17;;;;;;;3.87;3.67;;;;;;;3.27;51.83;92054.88;4941913;28;20470;-75
2022/01/31 09:38:44;;;;;;;9.87;5.07;;;;;;;3.38;51.04;92045.44;4946685;28;20572;-74
2022/01/31 09:41:16;;;;;;;11.73;6.50;;;;;;;3.46;51.53;92038.59;4947809;28;20553;-74
2022/01/31 09:49:22;;;;;;;2.47;2.27;;;;;;;3.71;48.76;92033.78;4957610;28;20595;-75
2022/01/31 09:51:50;;;;;;;2.97;2.87;;;;;;;3.87;47.99;92035.00;4946508;28;20472;-74
2022/01/31 09:54:17;;;;;;;2.37;2.13;;;;;;;4.00;48.51;92010.50;4945852;28;20205;-75
2022/01/31 09:56:46;;;;;;;7.27;3.33;;;;;;;4.10;47.15;92017.69;4942969;28;20548;-74
2022/01/31 09:59:15;;;;;;;8.10;3.43;;;;;;;4.22;46.44;92013.22;4941966;28;20505;-74
2022/01/31 10:01:46;;;;;;;7.67;2.93;;;;;;;4.31;47.36;91997.94;4951068;28;20692;-75
2022/01/31 10:04:17;;;;;;;5.60;2.60;;;;;;;4.42;46.17;92009.25;4946134;28;20710;-77
2022/01/31 10:06:47;;;;;;;5.00;4.57;;;;;;;4.53;45.13;92017.25;4944046;28;20751;-75
2022/01/31 10:09:17;;;;;;;9.43;6.87;;;;;;;4.64;46.04;91999.44;4944052;28;20197;-76
2022/01/31 10:11:49;;;;;;;9.40;6.40;;;;;;;4.63;46.00;91989.47;4947100;28;20231;-76
2022/01/31 10:17:11;;;;;;;6.07;5.67;;;;;;;4.81;44.63;91986.41;4952077;28;20271;-76
2022/01/31 10:19:43;;;;;;;6.67;6.07;;;;;;;5.40;44.62;91982.78;4944508;28;20643;-76
2022/01/31 10:22:13;;;;;;;1.80;1.70;;;;;;;6.72;38.94;92026.56;4949766;28;20473;-76
2022/01/31 10:24:43;;;;;;;3.60;3.13;;;;;;;8.36;36.87;92024.88;4948446;28;20580;-76
2022/01/31 10:27:14;;;;;;;11.03;4.53;;;;;;;9.63;32.51;92034.06;4943943;28;20472;-76
2022/01/31 10:29:41;;;;;;;3.60;3.40;;;;;;;10.90;31.22;92034.28;4947189;28;20572;-74
2022/01/31 10:32:13;;;;;;;20.07;7.30;;;;;;;11.97;29.21;92040.16;4953273;28;20215;-76
2022/01/31 10:34:46;;;;;;;2.33;2.10;;;;;;;12.89;27.14;92038.09;4948901;28;20516;-74
2022/01/31 10:37:15;;;;;;;2.38;2.17;;;;;;;13.68;25.82;92045.84;4944639;28;20477;-74
2022/01/31 10:53:56;;;;;;;3.65;3.42;;;;;;;12.02;28.91;91954.63;4946205;28;20541;-74
2022/01/31 10:56:24;;;;;;;2.40;2.23;;;;;;;11.50;28.79;91945.84;4942597;28;20596;-77
2022/01/31 10:58:58;;;;;;;1.03;1.03;;;;;;;11.19;28.55;91941.72;4950187;28;20520;-75
2022/01/31 11:01:26;;;;;;;2.90;2.80;;;;;;;11.27;28.69;91926.91;4943966;28;20569;-77
2022/01/31 11:03:57;;;;;;;3.07;2.43;;;;;;;11.16;27.97;91926.72;4949131;28;20508;-76
2022/01/31 11:06:24;;;;;;;3.20;2.90;;;;;;;11.35;29.24;91912.13;4949907;28;20229;-77
2022/01/31 11:08:53;;;;;;;2.67;2.47;;;;;;;11.05;28.58;91923.97;4941424;28;20553;-77
2022/01/31 11:11:20;;;;;;;4.87;2.67;;;;;;;10.90;29.33;91899.56;4947520;28;20629;-77
2022/01/31 11:13:49;;;;;;;3.83;3.53;;;;;;;10.72;29.65;91892.09;4951999;28;20572;-74
2022/01/31 11:16:18;;;;;;;6.10;5.00;;;;;;;10.67;30.34;91888.19;4947155;28;20705;-77
2022/01/31 11:18:47;;;;;;;3.03;2.87;;;;;;;10.80;29.92;91896.72;4949039;28;20612;-74
2022/01/31 11:21:19;;;;;;;11.50;5.33;;;;;;;10.88;29.00;91893.75;4951678;28;20213;-76
2022/01/31 11:23:51;;;;;;;7.77;4.73;;;;;;;11.24;29.19;91886.66;4953080;28;20230;-75
2022/01/31 11:26:23;;;;;;;6.33;4.43;;;;;;;12.03;28.99;91874.44;4946045;28;20478;-75
2022/01/31 11:28:51;;;;;;;11.27;6.22;;;;;;;12.90;26.26;91895.19;4944463;28;20592;-75
2022/01/31 11:31:19;;;;;;;2.10;1.95;;;;;;;13.60;23.28;91924.50;4948841;28;20307;-76
2022/01/31 11:33:47;;;;;;;1.77;1.75;;;;;;;13.74;24.35;91913.47;4950758;28;20580;-76
2022/01/31 11:36:16;;;;;;;2.60;2.50;;;;;;;13.40;24.01;91912.31;4954818;28;20556;-75
2022/01/31 11:38:44;;;;;;;4.18;3.78;;;;;;;13.72;24.28;91902.59;4950481;28;20208;-76
2022/01/31 11:41:12;;;;;;;4.75;4.35;;;;;;;14.19;25.51;91873.19;4945998;28;20209;-74
2022/01/31 11:43:40;;;;;;;9.23;6.05;;;;;;;14.90;23.99;91884.28;4941779;28;20629;-76
2022/01/31 11:46:09;;;;;;;32.85;9.23;;;;;;;15.73;22.68;91890.13;4946950;28;20503;-75
2022/01/31 11:48:38;;;;;;;2.83;1.55;;;;;;;15.98;20.77;91917.16;4945838;28;20504;-75
2022/01/31 11:51:05;;;;;;;3.35;3.05;;;;;;;15.97;21.80;91897.69;4948076;28;20277;-75
2022/01/31 11:53:36;;;;;;;3.15;2.95;;;;;;;15.61;20.93;91906.28;4939735;28;20522;-76
2022/01/31 11:56:08;;;;;;;1.23;1.23;;;;;;;15.26;20.50;91900.41;4947920;28;20545;-76
2022/01/31 11:58:49;;;;;;;44.50;12.25;;;;;;;15.25;21.12;91881.75;4948225;28;20524;-75
2022/01/31 12:01:17;;;;;;;67.93;17.88;;;;;;;14.89;20.97;91886.94;4945890;28;20496;-75
2022/01/31 12:03:54;;;;;;;42.05;15.30;;;;;;;13.94;22.87;91796.13;4943280;28;20469;-74
2022/01/31 12:06:22;;;;;;;87.93;25.10;;;;;;;13.11;21.64;91883.72;4968258;28;20236;-75
2022/01/31 12:08:53;;;;;;;25.05;11.98;;;;;;;12.08;22.60;91877.50;4949188;28;20552;-74
2022/01/31 12:11:27;;;;;;;14.93;9.07;;;;;;;11.72;24.04;91855.16;4949113;28;20495;-74
2022/01/31 12:13:58;;;;;;;5.07;4.43;;;;;;;11.38;23.49;91865.66;4949080;28;20481;-74
2022/01/31 12:16:50;;;;;;;15.10;8.10;;;;;;;11.41;25.28;91835.09;4944472;28;20196;-74
2022/01/31 12:19:34;;;;;;;6.43;5.90;;;;;;;11.81;26.32;91826.81;4944823;28;20351;-75
2022/01/31 12:22:03;;;;;;;5.47;5.07;;;;;;;12.58;24.87;91818.66;4942497;28;20208;-72
2022/01/31 12:24:34;;;;;;;4.05;3.00;;;;;;;13.59;23.49;91823.09;4958326;28;20482;-74
2022/01/31 12:27:12;;;;;;;2.60;2.50;;;;;;;14.27;23.06;91825.19;4937320;28;20225;-74